Waskesiu Lake, Canada
Current Conditions -  °F | °C
As of 6:00 AM on Sunday 25 Jan 2015 (Local Time) from CYPA Reporting Station
Haze Haze  
Wind Chill: -4°   Ceiling: 13000
Heat Index: -4°   Visibility: 5mi
Dew Point: -4°   Wind: 3mph
Humidity: 100%   Direction: 230°SW
Pressure: 29.82"   Gusts: NA
Location:  53.92°N, 106.08°W
Report Text: CYPA 251200Z 23003KT 5SM BR FEW004 OVC130 M04/M04 A2982 RMK SF2AC6 PRESFR SLP127
Loading
Personal Weather Stations






























Interactive Weather Map New forecast layout! Learn more

10-Day Weather Forecast

Advertisements
Track Severe Weather on mobile